^^
B2 Weather Station Historical Data
Daily Summary for January 03, 2018 Units:  English    Metric   Both
Daily Weekly Monthly Yearly Custom
  High: Low: Average:
Temperature: 17.0 °F 1.4 °F 10.7 °F
Dew Point: 13.6 °F -3.9 °F 5.5 °F
Humidity: 88% 72% 79%
Wind Speed: 17.3mph 0.0mph 9.3mph
Wind Gust: 17.3mph - -
Wind- - West
Pressure: 30.27 in 30.05 in -
Precipitation: 0.04 in    
Historical Graphs
 
 
Tabular Data for January 03, 2018
Time Temperature Dew Point Pressure Wind Wind Speed Wind Gust Humidity Rainfall Rate (Hourly) solar
00:01 5.7 °F -0.2 °F 30.19 in SSW 6.9 mph 6.9 mph 76% 0.00 in 0.0 W/m2
00:07 5.8 °F -0.1 °F 30.19 in SSW 6.9 mph 6.9 mph 76% 0.00 in 0.0 W/m2
00:08 5.8 °F -0.1 °F 30.19 in SSW 8.1 mph 8.1 mph 76% 0.00 in 0.0 W/m2
00:13 5.9 °F 0.0 °F 30.18 in WSW 9.2 mph 9.2 mph 76% 0.00 in 0.0 W/m2
00:16 5.9 °F 0.0 °F 30.18 in SSW 5.8 mph 5.8 mph 76% 0.00 in 0.0 W/m2
00:21 6.0 °F 0.1 °F 30.18 in SSW 6.9 mph 6.9 mph 76% 0.00 in 0.0 W/m2
00:22 6.0 °F 0.1 °F 30.18 in SSW 12.0 mph 12.0 mph 76% 0.00 in 0.0 W/m2
00:25 6.1 °F 0.2 °F 30.18 in SW 6.9 mph 6.9 mph 76% 0.00 in 0.0 W/m2
00:28 6.1 °F 0.2 °F 30.17 in SW 10.4 mph 10.4 mph 76% 0.00 in 0.0 W/m2
00:33 6.3 °F 0.3 °F 30.17 in SSW 11.5 mph 11.5 mph 76% 0.00 in 0.0 W/m2
00:38 6.5 °F 0.5 °F 30.17 in SSW 11.5 mph 11.5 mph 76% 0.00 in 0.0 W/m2
00:42 6.6 °F 0.6 °F 30.17 in SSW 11.5 mph 11.5 mph 76% 0.00 in 0.0 W/m2
00:44 6.7 °F 0.7 °F 30.17 in SSW 12.0 mph 12.0 mph 76% 0.00 in 0.0 W/m2
00:49 6.9 °F 0.9 °F 30.16 in SSW 6.9 mph 6.9 mph 76% 0.00 in 0.0 W/m2
00:50 6.9 °F 0.9 °F 30.16 in SW 10.4 mph 10.4 mph 76% 0.00 in 0.0 W/m2
00:55 7.1 °F 1.1 °F 30.16 in SW 11.5 mph 11.5 mph 76% 0.00 in 0.0 W/m2
00:56 7.2 °F 1.2 °F 30.16 in SW 11.5 mph 11.5 mph 76% 0.00 in 0.0 W/m2
00:57 7.1 °F 0.8 °F 30.16 in SSW 9.2 mph 9.2 mph 75% 0.00 in 0.0 W/m2
01:01 7.3 °F 1.0 °F 30.16 in SW 11.5 mph 11.5 mph 75% 0.00 in 0.0 W/m2
01:04 7.3 °F 1.0 °F 30.16 in SSW 11.5 mph 11.5 mph 75% 0.00 in 0.0 W/m2
01:06 7.4 °F 1.1 °F 30.15 in SSW 11.5 mph 11.5 mph 75% 0.00 in 0.0 W/m2
01:10 7.6 °F 1.3 °F 30.15 in SSW 11.5 mph 11.5 mph 75% 0.00 in 0.0 W/m2
01:12 7.6 °F 1.3 °F 30.15 in SSW 11.5 mph 11.5 mph 75% 0.00 in 0.0 W/m2
01:15 7.7 °F 1.4 °F 30.14 in SW 11.5 mph 11.5 mph 75% 0.00 in 0.0 W/m2
01:18 7.9 °F 1.6 °F 30.14 in South 9.2 mph 9.2 mph 75% 0.00 in 0.0 W/m2
01:22 8.0 °F 1.7 °F 30.14 in SSW 11.5 mph 11.5 mph 75% 0.00 in 0.0 W/m2
01:24 8.1 °F 1.8 °F 30.14 in South 11.5 mph 11.5 mph 75% 0.00 in 0.0 W/m2
01:29 8.2 °F 1.9 °F 30.14 in SSW 9.2 mph 9.2 mph 75% 0.00 in 0.0 W/m2
01:31 8.3 °F 2.0 °F 30.14 in SSW 12.7 mph 12.7 mph 75% 0.00 in 0.0 W/m2
01:32 8.3 °F 2.0 °F 30.14 in North 12.7 mph 12.7 mph 75% 0.00 in 0.0 W/m2
01:37 8.4 °F 1.8 °F 30.14 in SSW 11.5 mph 11.5 mph 74% 0.00 in 0.0 W/m2
01:42 8.5 °F 1.9 °F 30.14 in SSW 16.1 mph 16.1 mph 74% 0.00 in 0.0 W/m2
01:45 8.6 °F 2.0 °F 30.14 in SSW 8.1 mph 8.1 mph 74% 0.00 in 0.0 W/m2
01:48 8.6 °F 2.0 °F 30.14 in SSW 11.5 mph 11.5 mph 74% 0.00 in 0.0 W/m2
01:50 8.6 °F 2.0 °F 30.14 in WSW 11.0 mph 11.0 mph 74% 0.00 in 0.0 W/m2
01:59 8.9 °F 2.3 °F 30.13 in SSW 10.4 mph 10.4 mph 74% 0.00 in 0.0 W/m2
02:04 8.9 °F 2.3 °F 30.13 in SW 11.5 mph 11.5 mph 74% 0.00 in 0.0 W/m2
02:05 8.9 °F 2.3 °F 30.13 in SW 9.2 mph 9.2 mph 74% 0.00 in 0.0 W/m2
02:10 8.9 °F 2.3 °F 30.13 in SW 6.9 mph 6.9 mph 74% 0.00 in 0.0 W/m2
02:11 9.0 °F 2.4 °F 30.13 in SSW 6.9 mph 6.9 mph 74% 0.00 in 0.0 W/m2
02:16 9.0 °F 2.7 °F 30.13 in SSW 5.8 mph 5.8 mph 75% 0.00 in 0.0 W/m2
02:18 9.1 °F 2.8 °F 30.13 in SSW 11.5 mph 11.5 mph 75% 0.00 in 0.0 W/m2
02:23 9.2 °F 2.9 °F 30.12 in SSW 11.5 mph 11.5 mph 75% 0.00 in 0.0 W/m2
02:30 9.3 °F 3.0 °F 30.12 in SW 8.1 mph 8.1 mph 75% 0.00 in 0.0 W/m2
02:33 9.3 °F 3.0 °F 30.12 in SSW 8.1 mph 8.1 mph 75% 0.00 in 0.0 W/m2
02:35 9.4 °F 3.4 °F 30.12 in South 11.5 mph 11.5 mph 76% 0.00 in 0.0 W/m2
02:40 9.5 °F 3.2 °F 30.12 in SSW 10.4 mph 10.4 mph 75% 0.00 in 0.0 W/m2
02:45 9.7 °F 3.4 °F 30.12 in SSW 5.0 mph 5.0 mph 75% 0.00 in 0.0 W/m2
02:46 9.7 °F 3.4 °F 30.12 in SSW 3.0 mph 3.0 mph 75% 0.00 in 0.0 W/m2
02:47 9.7 °F 3.4 °F 30.12 in SSW 8.1 mph 8.1 mph 75% 0.00 in 0.0 W/m2
02:51 9.8 °F 3.7 °F 30.11 in SSW 6.9 mph 6.9 mph 76% 0.00 in 0.0 W/m2
02:56 10.0 °F 3.9 °F 30.11 in South 3.0 mph 3.0 mph 76% 0.00 in 0.0 W/m2
02:58 10.1 °F 4.0 °F 30.11 in South 9.2 mph 9.2 mph 76% 0.00 in 0.0 W/m2
03:00 10.2 °F 3.8 °F 30.11 in SSW 8.1 mph 8.1 mph 75% 0.00 in 0.0 W/m2
03:04 10.5 °F 4.1 °F 30.11 in SW 10.4 mph 10.4 mph 75% 0.00 in 0.0 W/m2
03:06 10.5 °F 4.1 °F 30.11 in SSW 10.4 mph 10.4 mph 75% 0.00 in 0.0 W/m2
03:09 10.7 °F 4.3 °F 30.11 in South 6.9 mph 6.9 mph 75% 0.00 in 0.0 W/m2
03:11 10.8 °F 4.4 °F 30.11 in Calm     75% 0.00 in 0.0 W/m2
03:16 10.8 °F 4.1 °F 30.10 in WSW 8.0 mph 8.0 mph 74% 0.00 in 0.0 W/m2
03:21 10.9 °F 4.2 °F 30.10 in SSW 2.3 mph 2.3 mph 74% 0.00 in 0.0 W/m2
03:22 10.9 °F 4.2 °F 30.10 in SSW 9.2 mph 9.2 mph 74% 0.00 in 0.0 W/m2
03:27 11.0 °F 4.3 °F 30.10 in SW 9.0 mph 9.0 mph 74% 0.00 in 0.0 W/m2
03:28 11.0 °F 4.3 °F 30.10 in SSW 9.2 mph 9.2 mph 74% 0.00 in 0.0 W/m2
03:31 11.0 °F 4.3 °F 30.10 in SW 6.9 mph 6.9 mph 74% 0.00 in 0.0 W/m2
03:33 11.1 °F 4.4 °F 30.10 in SSW 6.9 mph 6.9 mph 74% 0.00 in 0.0 W/m2
03:39 11.2 °F 4.8 °F 30.09 in SSW 9.2 mph 9.2 mph 75% 0.00 in 0.0 W/m2
03:40 11.2 °F 4.8 °F 30.09 in South 11.5 mph 11.5 mph 75% 0.00 in 0.0 W/m2
03:44 11.4 °F 4.7 °F 30.09 in SW 4.0 mph 4.0 mph 74% 0.00 in 0.0 W/m2
03:47 11.5 °F 4.8 °F 30.10 in SW 1.0 mph 1.0 mph 74% 0.00 in 0.0 W/m2
03:50 11.6 °F 4.9 °F 30.09 in SSW 8.1 mph 8.1 mph 74% 0.00 in 0.0 W/m2
03:55 11.7 °F 5.0 °F 30.09 in SW 8.1 mph 8.1 mph 74% 0.00 in 0.0 W/m2
03:59 11.9 °F 4.9 °F 30.09 in SSW 5.8 mph 5.8 mph 73% 0.00 in 0.0 W/m2
04:01 11.9 °F 4.9 °F 30.09 in SW 6.9 mph 6.9 mph 73% 0.00 in 0.0 W/m2
04:06 12.1 °F 5.1 °F 30.09 in SSW 10.4 mph 10.4 mph 73% 0.00 in 0.0 W/m2
04:11 12.3 °F 5.3 °F 30.08 in SSW 7.0 mph 7.0 mph 73% 0.00 in 0.0 W/m2
04:13 12.3 °F 5.3 °F 30.08 in SW 7.0 mph 7.0 mph 73% 0.00 in 0.0 W/m2
04:18 12.4 °F 5.1 °F 30.08 in SSW 9.2 mph 9.2 mph 72% 0.00 in 0.0 W/m2
04:19 12.4 °F 5.1 °F 30.08 in SSW 12.7 mph 12.7 mph 72% 0.00 in 0.0 W/m2
04:20 12.5 °F 5.2 °F 30.07 in SSW 6.9 mph 6.9 mph 72% 0.00 in 0.0 W/m2
04:25 12.6 °F 5.3 °F 30.07 in SSW 6.9 mph   72% 0.00 in 0.0 W/m2
04:26 12.6 °F 5.3 °F 30.07 in Calm     72% 0.00 in 0.0 W/m2
04:28 12.6 °F 5.6 °F 30.08 in SSW 4.6 mph 4.6 mph 73% 0.00 in 0.0 W/m2
04:32 12.6 °F 5.6 °F 30.07 in SSW 8.1 mph 8.1 mph 73% 0.00 in 0.0 W/m2
04:35 12.6 °F 5.6 °F 30.07 in SSW 5.0 mph 5.0 mph 73% 0.00 in 0.0 W/m2
04:39 12.7 °F 5.7 °F 30.07 in SW 10.4 mph 10.4 mph 73% 0.00 in 0.0 W/m2
04:44 12.7 °F 6.0 °F 30.07 in SW 10.0 mph 10.0 mph 74% 0.00 in 0.0 W/m2
04:49 12.7 °F 6.0 °F 30.07 in SSW 4.6 mph 4.6 mph 74% 0.00 in 0.0 W/m2
04:50 12.7 °F 6.3 °F 30.07 in SSW 3.5 mph 3.5 mph 75% 0.00 in 0.0 W/m2
04:58 12.7 °F 6.6 °F 30.07 in Calm     76% 0.00 in 0.0 W/m2
05:04 12.8 °F 6.7 °F 30.07 in Calm     76% 0.00 in 0.0 W/m2
05:09 12.9 °F 7.0 °F 30.07 in SW 9.2 mph 9.2 mph 77% 0.00 in 0.0 W/m2
05:12 13.0 °F 7.1 °F 30.07 in WSW 8.1 mph 8.1 mph 77% 0.00 in 0.0 W/m2
05:16 13.1 °F 7.5 °F 30.07 in SW 12.7 mph 12.7 mph 78% 0.00 in 0.0 W/m2
05:19 13.2 °F 7.6 °F 30.07 in SW 12.7 mph 12.7 mph 78% 0.00 in 0.0 W/m2
05:22 13.2 °F 7.9 °F 30.07 in WSW 8.0 mph 8.0 mph 79% 0.00 in 0.0 W/m2
05:27 13.2 °F 8.5 °F 30.08 in SW 11.5 mph 11.5 mph 81% 0.00 in 0.0 W/m2
05:31 13.2 °F 8.7 °F 30.08 in SW 9.2 mph 9.2 mph 82% 0.00 in 0.0 W/m2
05:32 13.1 °F 8.9 °F 30.08 in WSW 8.1 mph 8.1 mph 83% 0.00 in 0.0 W/m2
05:37 13.0 °F 9.1 °F 30.07 in WSW 11.5 mph 11.5 mph 84% 0.00 in 0.0 W/m2
05:41 13.0 °F 9.1 °F 30.07 in WSW 8.0 mph 8.0 mph 84% 0.00 in 0.0 W/m2
05:46 13.0 °F 9.3 °F 30.07 in SW 8.1 mph 8.1 mph 85% 0.00 in 0.0 W/m2
05:48 13.0 °F 9.3 °F 30.07 in SW 9.2 mph 9.2 mph 85% 0.00 in 0.0 W/m2
05:53 13.0 °F 9.6 °F 30.07 in SSW 8.1 mph 8.1 mph 86% 0.00 in 0.0 W/m2
05:54 13.0 °F 9.6 °F 30.06 in SW 9.2 mph 9.2 mph 86% 0.00 in 0.0 W/m2
05:58 13.1 °F 9.7 °F 30.06 in SSW 8.1 mph 8.1 mph 86% 0.00 in 0.0 W/m2
06:00 13.1 °F 9.7 °F 30.06 in WSW 9.2 mph 9.2 mph 86% 0.00 in 0.0 W/m2
06:04 13.1 °F 9.7 °F 30.07 in SW 8.1 mph 8.1 mph 86% 0.00 in 0.0 W/m2
06:09 13.2 °F 9.8 °F 30.06 in SSW 11.5 mph 11.5 mph 86% 0.00 in 0.0 W/m2
06:10 13.2 °F 10.1 °F 30.06 in WSW 10.4 mph 10.4 mph 87% 0.00 in 0.0 W/m2
06:16 13.2 °F 10.1 °F 30.06 in SW 8.1 mph 8.1 mph 87% 0.00 in 0.0 W/m2
06:18 13.3 °F 10.2 °F 30.06 in SW 11.5 mph 11.5 mph 87% 0.00 in 0.0 W/m2
06:21 13.3 °F 10.2 °F 30.06 in WSW 11.5 mph 11.5 mph 87% 0.00 in 0.0 W/m2
06:26 13.4 °F 10.3 °F 30.06 in SW 2.0 mph 2.0 mph 87% 0.00 in 0.0 W/m2
06:27 13.4 °F 10.3 °F 30.06 in WSW 5.0 mph 5.0 mph 87% 0.00 in 0.0 W/m2
06:32 13.5 °F 10.4 °F 30.07 in SW 8.1 mph 8.1 mph 87% 0.00 in 0.0 W/m2
06:37 13.6 °F 10.5 °F 30.07 in WSW 8.1 mph 8.1 mph 87% 0.00 in 0.0 W/m2
06:42 13.7 °F 10.5 °F 30.07 in SW 9.2 mph 9.2 mph 87% 0.00 in 0.0 W/m2
06:43 13.7 °F 10.5 °F 30.07 in WSW 7.0 mph 7.0 mph 87% 0.00 in 0.0 W/m2
06:48 13.8 °F 10.6 °F 30.06 in WSW 5.8 mph 5.8 mph 87% 0.00 in 0.0 W/m2
06:49 13.8 °F 10.6 °F 30.06 in WSW 8.1 mph 8.1 mph 87% 0.00 in 0.0 W/m2
06:51 13.9 °F 11.0 °F 30.06 in WSW 6.9 mph 6.9 mph 88% 0.00 in 0.0 W/m2
06:55 13.9 °F 10.7 °F 30.07 in SW 9.2 mph 9.2 mph 87% 0.00 in 0.0 W/m2
07:00 14.0 °F 10.8 °F 30.07 in SW 10.4 mph 10.4 mph 87% 0.00 in 0.0 W/m2
07:06 14.1 °F 10.9 °F 30.06 in WSW 10.0 mph 10.0 mph 87% 0.00 in 0.0 W/m2
07:07 14.1 °F 10.9 °F 30.06 in WSW 11.5 mph 11.5 mph 87% 0.00 in 0.0 W/m2
07:12 14.2 °F 11.0 °F 30.07 in SW 9.2 mph 9.2 mph 87% 0.00 in 0.0 W/m2
07:13 14.2 °F 11.0 °F 30.07 in SW 8.1 mph 8.1 mph 87% 0.00 in 0.0 W/m2
07:18 14.3 °F 11.1 °F 30.06 in WSW 12.7 mph 12.7 mph 87% 0.00 in 0.0 W/m2
07:20 14.3 °F 11.1 °F 30.06 in North 10.4 mph 10.4 mph 87% 0.00 in 0.0 W/m2
07:23 14.3 °F 11.1 °F 30.06 in WSW 6.9 mph 6.9 mph 87% 0.00 in 0.0 W/m2
07:28 14.4 °F 11.2 °F 30.06 in WSW 9.2 mph 9.2 mph 87% 0.00 in 7.0 W/m2
07:29 14.4 °F 11.2 °F 30.06 in WSW 9.2 mph 9.2 mph 87% 0.00 in 7.0 W/m2
07:37 14.5 °F 11.1 °F 30.06 in West 6.0 mph 6.0 mph 86% 0.00 in 12.0 W/m2
07:41 14.6 °F 11.2 °F 30.05 in West 12.7 mph 12.7 mph 86% 0.00 in 14.0 W/m2
07:43 14.6 °F 11.2 °F 30.05 in WSW 8.1 mph 8.1 mph 86% 0.00 in 16.0 W/m2
07:48 14.7 °F 11.3 °F 30.05 in West 8.1 mph 8.1 mph 86% 0.00 in 21.0 W/m2
07:49 14.7 °F 11.3 °F 30.05 in WNW 9.2 mph 9.2 mph 86% 0.00 in 21.0 W/m2
07:54 14.8 °F 11.4 °F 30.06 in WSW 9.2 mph 9.2 mph 86% 0.00 in 25.0 W/m2
07:55 14.8 °F 11.4 °F 30.06 in WSW 8.1 mph 8.1 mph 86% 0.00 in 25.0 W/m2
07:56 14.8 °F 11.4 °F 30.06 in WSW 9.0 mph 9.0 mph 86% 0.00 in 25.0 W/m2
08:03 14.9 °F 11.5 °F 30.06 in WSW 8.1 mph 8.1 mph 86% 0.00 in 33.0 W/m2
08:08 15.0 °F 11.3 °F 30.05 in WSW 9.2 mph 9.2 mph 85% 0.00 in 42.0 W/m2
08:10 15.1 °F 11.4 °F 30.05 in WSW 8.1 mph 8.1 mph 85% 0.00 in 42.0 W/m2
08:15 15.2 °F 11.5 °F 30.05 in WSW 10.4 mph 10.4 mph 85% 0.00 in 47.0 W/m2
08:16 15.2 °F 11.5 °F 30.05 in WSW 6.9 mph 6.9 mph 85% 0.00 in 49.0 W/m2
08:21 15.3 °F 11.6 °F 30.05 in WSW 9.2 mph 9.2 mph 85% 0.00 in 53.0 W/m2
08:23 15.3 °F 11.6 °F 30.05 in WSW 11.5 mph 11.5 mph 85% 0.00 in 58.0 W/m2
08:28 15.4 °F 11.7 °F 30.05 in WSW 5.8 mph 5.8 mph 85% 0.00 in 62.0 W/m2
08:29 15.4 °F 11.7 °F 30.05 in WSW 7.0 mph 7.0 mph 85% 0.00 in 62.0 W/m2
08:34 15.5 °F 11.8 °F 30.05 in Calm     85% 0.00 in 69.0 W/m2
08:39 15.5 °F 11.8 °F 30.06 in West 8.1 mph 8.1 mph 85% 0.00 in 72.0 W/m2
08:41 15.5 °F 11.8 °F 30.06 in West 8.1 mph 8.1 mph 85% 0.00 in 74.0 W/m2
08:46 15.6 °F 12.2 °F 30.06 in WSW 11.5 mph 11.5 mph 86% 0.00 in 81.0 W/m2
08:47 15.7 °F 12.3 °F 30.06 in WSW 9.0 mph 9.0 mph 86% 0.00 in 83.0 W/m2
08:52 15.7 °F 12.3 °F 30.06 in West 7.0 mph 7.0 mph 86% 0.00 in 90.0 W/m2
08:53 15.7 °F 12.3 °F 30.06 in WSW 9.2 mph 9.2 mph 86% 0.00 in 90.0 W/m2
08:54 15.7 °F 12.3 °F 30.06 in WSW 10.4 mph 10.4 mph 86% 0.00 in 90.0 W/m2
08:59 15.8 °F 12.4 °F 30.06 in West 8.1 mph 8.1 mph 86% 0.00 in 95.0 W/m2
09:04 15.9 °F 12.5 °F 30.06 in WSW 8.1 mph 8.1 mph 86% 0.00 in 98.0 W/m2
09:07 15.9 °F 12.5 °F 30.06 in West 9.2 mph 9.2 mph 86% 0.00 in 98.0 W/m2
09:12 16.0 °F 12.6 °F 30.06 in WSW 9.2 mph 9.2 mph 86% 0.00 in 107.0 W/m2
09:17 16.1 °F 12.7 °F 30.06 in WSW 10.0 mph 10.0 mph 86% 0.00 in 114.0 W/m2
09:19 16.1 °F 12.7 °F 30.06 in WSW 6.9 mph 6.9 mph 86% 0.00 in 120.0 W/m2
09:24 16.2 °F 13.0 °F 30.06 in WSW 6.9 mph 6.9 mph 87% 0.00 in 135.0 W/m2
09:33 16.3 °F 13.1 °F 30.06 in WNW 6.9 mph 6.9 mph 87% 0.00 in 162.0 W/m2
09:37 16.4 °F 13.2 °F 30.07 in WSW 4.6 mph 4.6 mph 87% 0.00 in 155.0 W/m2
09:39 16.4 °F 13.2 °F 30.07 in WSW 8.1 mph 8.1 mph 87% 0.00 in 151.0 W/m2
09:44 16.5 °F 13.3 °F 30.07 in WSW 13.8 mph 13.8 mph 87% 0.00 in 155.0 W/m2
09:50 16.7 °F 13.5 °F 30.07 in West 4.6 mph 4.6 mph 87% 0.00 in 172.0 W/m2
09:53 16.8 °F 13.6 °F 30.07 in West 3.5 mph 3.5 mph 87% 0.00 in 163.0 W/m2
09:55 16.8 °F 13.6 °F 30.07 in West 11.0 mph 11.0 mph 87% 0.00 in 160.0 W/m2
10:00 16.9 °F 13.4 °F 30.07 in West 8.1 mph 8.1 mph 86% 0.00 in 165.0 W/m2
10:01 16.9 °F 13.4 °F 30.07 in WNW 8.1 mph 8.1 mph 86% 0.00 in 163.0 W/m2
10:02 16.9 °F 13.4 °F 30.07 in WSW 11.5 mph 11.5 mph 86% 0.00 in 169.0 W/m2
10:07 17.0 °F 13.5 °F 30.07 in West 9.2 mph 9.2 mph 86% 0.00 in 172.0 W/m2
10:09 17.0 °F 13.5 °F 30.07 in WNW 5.8 mph 5.8 mph 86% 0.00 in 176.0 W/m2
10:13 17.0 °F 13.3 °F 30.07 in WNW 11.5 mph 11.5 mph 85% 0.00 in 179.0 W/m2
10:18 16.9 °F 13.2 °F 30.07 in West 8.1 mph 8.1 mph 85% 0.00 in 193.0 W/m2
10:24 16.8 °F 13.1 °F 30.07 in WNW 11.5 mph 11.5 mph 85% 0.00 in 192.0 W/m2
10:29 16.7 °F 13.0 °F 30.07 in WNW 9.2 mph 9.2 mph 85% 0.00 in 216.0 W/m2
10:30 16.7 °F 13.0 °F 30.07 in WNW 9.2 mph 9.2 mph 85% 0.00 in 211.0 W/m2
10:37 16.6 °F 12.9 °F 30.07 in WNW 11.5 mph 11.5 mph 85% 0.00 in 225.0 W/m2
10:38 16.6 °F 12.9 °F 30.07 in West 10.4 mph 10.4 mph 85% 0.00 in 225.0 W/m2
10:39 16.7 °F 12.7 °F 30.07 in WNW 9.0 mph 9.0 mph 84% 0.00 in 223.0 W/m2
10:44 16.7 °F 12.4 °F 30.07 in West 6.9 mph 6.9 mph 83% 0.00 in 230.0 W/m2
10:45 16.7 °F 12.4 °F 30.07 in WNW 6.9 mph 6.9 mph 83% 0.00 in 225.0 W/m2
10:49 16.7 °F 12.2 °F 30.07 in West 10.4 mph 10.4 mph 82% 0.00 in 221.0 W/m2
10:51 16.7 °F 12.2 °F 30.07 in WNW 11.5 mph 11.5 mph 82% 0.00 in 223.0 W/m2
10:55 16.7 °F 12.2 °F 30.06 in WNW 9.2 mph 9.2 mph 82% 0.00 in 218.0 W/m2
10:57 16.6 °F 12.1 °F 30.07 in West 10.4 mph 10.4 mph 82% 0.00 in 207.0 W/m2
11:02 16.5 °F 12.0 °F 30.07 in NW 10.0 mph 10.0 mph 82% 0.00 in 213.0 W/m2
11:07 16.5 °F 12.0 °F 30.07 in NW 11.5 mph 11.5 mph 82% 0.00 in 243.0 W/m2
11:08 16.5 °F 12.0 °F 30.07 in NW 14.0 mph 14.0 mph 82% 0.00 in 248.0 W/m2
11:13 16.5 °F 11.7 °F 30.06 in NW 9.2 mph 9.2 mph 81% 0.00 in 248.0 W/m2
11:15 16.5 °F 12.0 °F 30.06 in WNW 9.2 mph 9.2 mph 82% 0.00 in 232.0 W/m2
11:18 16.5 °F 12.0 °F 30.06 in NW 6.9 mph 6.9 mph 82% 0.00 in 206.0 W/m2
11:20 16.5 °F 12.0 °F 30.06 in WNW 9.2 mph 9.2 mph 82% 0.00 in 244.0 W/m2
11:24 16.5 °F 12.2 °F 30.06 in WNW 7.0 mph 7.0 mph 83% 0.00 in 197.0 W/m2
11:27 16.5 °F 12.2 °F 30.06 in NW 11.5 mph 11.5 mph 83% 0.00 in 153.0 W/m2
11:30 16.3 °F 12.0 °F 30.06 in NW 11.5 mph 11.5 mph 83% 0.00 in 167.0 W/m2
11:33 16.2 °F 12.2 °F 30.05 in NNW 10.4 mph 10.4 mph 84% 0.00 in 176.0 W/m2
11:35 16.2 °F 12.2 °F 30.05 in NW 9.2 mph 9.2 mph 84% 0.00 in 163.0 W/m2
11:38 16.1 °F 12.1 °F 30.05 in NW 5.8 mph 5.8 mph 84% 0.00 in 188.0 W/m2
11:43 16.1 °F 12.1 °F 30.06 in NW 8.1 mph 8.1 mph 84% 0.00 in 179.0 W/m2
11:48 16.2 °F 12.5 °F 30.05 in WNW 5.8 mph 5.8 mph 85% 0.00 in 167.0 W/m2
11:49 16.2 °F 12.2 °F 30.06 in WNW 3.5 mph 3.5 mph 84% 0.00 in 169.0 W/m2
11:53 16.4 °F 12.4 °F 30.06 in WNW 5.0 mph 5.0 mph 84% 0.00 in 202.0 W/m2
11:54 16.4 °F 12.4 °F 30.06 in WNW 9.2 mph 9.2 mph 84% 0.00 in 214.0 W/m2
11:59 16.4 °F 11.9 °F 30.06 in WNW 8.1 mph 8.1 mph 82% 0.00 in 241.0 W/m2
12:02 16.5 °F 11.7 °F 30.06 in WNW 5.8 mph 5.8 mph 81% 0.00 in 225.0 W/m2
12:04 16.6 °F 12.1 °F 30.06 in NW 8.1 mph 8.1 mph 82% 0.00 in 200.0 W/m2
12:09 16.5 °F 12.2 °F 30.06 in WNW 6.9 mph 6.9 mph 83% 0.00 in 171.0 W/m2
12:13 16.4 °F 12.4 °F 30.06 in WNW 8.1 mph 8.1 mph 84% 0.00 in 163.0 W/m2
12:17 16.2 °F 12.2 °F 30.06 in WNW 10.4 mph 10.4 mph 84% 0.00 in 167.0 W/m2
12:22 15.9 °F 12.5 °F 30.06 in WNW 12.0 mph 12.0 mph 86% 0.00 in 179.0 W/m2
12:24 15.7 °F 12.0 °F 30.06 in NW 11.5 mph 11.5 mph 85% 0.00 in 178.0 W/m2
12:28 15.2 °F 11.8 °F 30.06 in WNW 13.8 mph 13.8 mph 86% 0.00 in 200.0 W/m2
12:30 15.2 °F 12.0 °F 30.06 in WNW 6.9 mph 6.9 mph 87% 0.00 in 216.0 W/m2
12:35 15.3 °F 12.1 °F 30.06 in NW 11.5 mph 11.5 mph 87% 0.00 in 246.0 W/m2
12:44 15.7 °F 12.5 °F 30.06 in WNW 12.7 mph 12.7 mph 87% 0.00 in 265.0 W/m2
12:45 15.7 °F 12.5 °F 30.06 in NW 12.7 mph 12.7 mph 87% 0.00 in 264.0 W/m2
12:50 15.7 °F 12.3 °F 30.06 in NNW 12.7 mph 12.7 mph 86% 0.01 in 250.0 W/m2
12:55 15.7 °F 12.3 °F 30.06 in NW 12.7 mph 12.7 mph 86% 0.01 in 265.0 W/m2
12:56 15.7 °F 12.3 °F 30.06 in WNW 11.5 mph 11.5 mph 86% 0.01 in 265.0 W/m2
12:57 15.7 °F 12.3 °F 30.06 in WNW 11.5 mph 11.5 mph 86% 0.01 in 265.0 W/m2
13:02 15.7 °F 12.3 °F 30.06 in West 11.5 mph 11.5 mph 86% 0.01 in 258.0 W/m2
13:07 15.5 °F 11.5 °F 30.06 in WNW 11.5 mph 11.5 mph 84% 0.01 in 264.0 W/m2
13:09 15.5 °F 11.5 °F 30.06 in WNW 10.4 mph 10.4 mph 84% 0.01 in 260.0 W/m2
13:14 15.4 °F 11.4 °F 30.06 in NW 12.7 mph 12.7 mph 84% 0.01 in 257.0 W/m2
13:15 15.4 °F 11.2 °F 30.06 in WNW 9.0 mph 9.0 mph 83% 0.01 in 257.0 W/m2
13:19 15.4 °F 11.2 °F 30.06 in West 15.0 mph 15.0 mph 83% 0.01 in 257.0 W/m2
13:20 15.4 °F 11.2 °F 30.06 in WNW 17.0 mph 17.0 mph 83% 0.01 in 251.0 W/m2
13:24 15.3 °F 11.1 °F 30.06 in WNW 12.7 mph 12.7 mph 83% 0.01 in 246.0 W/m2
13:29 15.3 °F 11.1 °F 30.06 in NW 12.7 mph 12.7 mph 83% 0.01 in 237.0 W/m2
13:32 15.3 °F 11.1 °F 30.06 in NW 14.0 mph 14.0 mph 83% 0.01 in 236.0 W/m2
13:35 15.2 °F 10.7 °F 30.06 in WNW 17.3 mph 17.3 mph 82% 0.01 in 223.0 W/m2
13:41 15.0 °F 10.2 °F 30.06 in NW 13.8 mph 13.8 mph 81% 0.01 in 221.0 W/m2
13:42 15.0 °F 10.2 °F 30.06 in WNW 12.7 mph 12.7 mph 81% 0.01 in 221.0 W/m2
13:46 14.9 °F 10.1 °F 30.07 in WSW 12.7 mph 12.7 mph 81% 0.00 in 260.0 W/m2
13:48 14.9 °F 10.1 °F 30.07 in WNW 11.5 mph 11.5 mph 81% 0.00 in 297.0 W/m2
13:51 14.9 °F 10.1 °F 30.07 in WNW 11.5 mph 11.5 mph 81% 0.00 in 230.0 W/m2
13:55 14.9 °F 9.8 °F 30.07 in WNW 8.1 mph 8.1 mph 80% 0.00 in 367.0 W/m2
13:57 14.9 °F 9.8 °F 30.06 in West 11.5 mph 11.5 mph 80% 0.00 in 359.0 W/m2
14:02 15.3 °F 10.0 °F 30.07 in WNW 12.0 mph 12.0 mph 79% 0.00 in 497.0 W/m2
14:03 15.5 °F 10.1 °F 30.07 in WNW 11.5 mph 11.5 mph 79% 0.00 in 547.0 W/m2
14:08 15.8 °F 10.4 °F 30.07 in WNW 10.4 mph 10.4 mph 79% 0.00 in 503.0 W/m2
14:13 15.8 °F 10.2 °F 30.07 in WNW 15.0 mph 15.0 mph 78% 0.00 in 334.0 W/m2
14:15 15.7 °F 9.8 °F 30.07 in WNW 11.5 mph 11.5 mph 77% 0.00 in 323.0 W/m2
14:20 15.5 °F 9.6 °F 30.07 in West 12.7 mph 12.7 mph 77% 0.00 in 323.0 W/m2
14:22 15.4 °F 9.5 °F 30.07 in WNW 11.5 mph 11.5 mph 77% 0.00 in 374.0 W/m2
14:26 15.3 °F 9.4 °F 30.08 in NW 12.7 mph 12.7 mph 77% 0.00 in 325.0 W/m2
14:28 15.3 °F 9.4 °F 30.08 in NW 11.5 mph 11.5 mph 77% 0.00 in 229.0 W/m2
14:31 15.2 °F 9.3 °F 30.08 in NW 10.4 mph 10.4 mph 77% 0.00 in 350.0 W/m2
14:36 15.2 °F 9.3 °F 30.08 in NW 12.7 mph 12.7 mph 77% 0.00 in 334.0 W/m2
14:39 15.0 °F 8.8 °F 30.08 in WNW 12.7 mph 12.7 mph 76% 0.00 in 269.0 W/m2
14:44 14.7 °F 8.2 °F 30.08 in WNW 12.7 mph 12.7 mph 75% 0.00 in 248.0 W/m2
14:49 14.4 °F 7.6 °F 30.08 in WNW 13.8 mph 13.8 mph 74% 0.00 in 223.0 W/m2
14:54 14.3 °F 7.5 °F 30.09 in WNW 10.4 mph 10.4 mph 74% 0.00 in 218.0 W/m2
14:57 14.2 °F 7.4 °F 30.09 in West 11.5 mph 11.5 mph 74% 0.00 in 213.0 W/m2
15:01 14.2 °F 7.7 °F 30.09 in West 11.5 mph 11.5 mph 75% 0.00 in 202.0 W/m2
15:02 14.1 °F 7.6 °F 30.09 in WNW 11.5 mph 11.5 mph 75% 0.00 in 195.0 W/m2
15:07 14.0 °F 7.2 °F 30.09 in WNW 8.1 mph 8.1 mph 74% 0.00 in 178.0 W/m2
15:10 14.0 °F 7.2 °F 30.09 in West 9.0 mph 9.0 mph 74% 0.00 in 167.0 W/m2
15:13 13.9 °F 7.1 °F 30.10 in NW 12.0 mph 12.0 mph 74% 0.00 in 160.0 W/m2
15:17 13.7 °F 6.9 °F 30.09 in WNW 12.7 mph 12.7 mph 74% 0.00 in 149.0 W/m2
15:18 13.7 °F 6.9 °F 30.10 in WNW 11.5 mph 11.5 mph 74% 0.00 in 141.0 W/m2
15:23 13.5 °F 6.5 °F 30.10 in WNW 11.5 mph 11.5 mph 73% 0.00 in 125.0 W/m2
15:24 13.5 °F 6.5 °F 30.10 in WNW 11.5 mph 11.5 mph 73% 0.00 in 125.0 W/m2
15:26 13.4 °F 6.4 °F 30.10 in NW 11.5 mph 11.5 mph 73% 0.00 in 118.0 W/m2
15:39 13.0 °F 6.0 °F 30.11 in WNW 10.4 mph 10.4 mph 73% 0.00 in 90.0 W/m2
15:40 13.0 °F 6.0 °F 30.11 in West 8.1 mph 8.1 mph 73% 0.00 in 86.0 W/m2
15:41 13.0 °F 6.0 °F 30.11 in WNW 11.0 mph 11.0 mph 73% 0.00 in 77.0 W/m2
15:46 12.8 °F 5.8 °F 30.11 in NW 8.1 mph 8.1 mph 73% 0.00 in 37.0 W/m2
15:49 12.6 °F 5.6 °F 30.11 in West 10.4 mph 10.4 mph 73% 0.00 in 35.0 W/m2
15:56 12.3 °F 5.6 °F 30.11 in WNW 10.4 mph 10.4 mph 74% 0.00 in 30.0 W/m2
15:58 12.2 °F 5.5 °F 30.11 in West 10.4 mph 10.4 mph 74% 0.00 in 28.0 W/m2
16:02 12.1 °F 5.4 °F 30.11 in WNW 6.9 mph 6.9 mph 74% 0.00 in 26.0 W/m2
16:03 12.1 °F 5.4 °F 30.11 in West 11.5 mph 11.5 mph 74% 0.00 in 25.0 W/m2
16:08 11.9 °F 5.2 °F 30.12 in WNW 8.1 mph 8.1 mph 74% 0.00 in 21.0 W/m2
16:09 11.9 °F 5.2 °F 30.12 in NW 11.5 mph 11.5 mph 74% 0.00 in 21.0 W/m2
16:14 11.7 °F 5.0 °F 30.12 in NW 11.5 mph 11.5 mph 74% 0.00 in 18.0 W/m2
16:19 11.5 °F 4.8 °F 30.12 in WNW 8.1 mph 8.1 mph 74% 0.00 in 14.0 W/m2
16:24 11.3 °F 4.9 °F 30.13 in WNW 10.4 mph 10.4 mph 75% 0.00 in 11.0 W/m2
16:25 11.3 °F 4.9 °F 30.13 in WNW 7.0 mph 7.0 mph 75% 0.00 in 11.0 W/m2
16:26 11.1 °F 4.7 °F 30.13 in NW 8.0 mph 8.0 mph 75% 0.00 in 11.0 W/m2
16:30 11.0 °F 4.6 °F 30.13 in West 5.8 mph 5.8 mph 75% 0.00 in 7.0 W/m2
16:31 10.9 °F 4.5 °F 30.13 in WNW 11.5 mph 11.5 mph 75% 0.00 in 7.0 W/m2
16:36 10.8 °F 4.7 °F 30.13 in WNW 10.4 mph 10.4 mph 76% 0.00 in 0.0 W/m2
16:37 10.8 °F 4.7 °F 30.13 in WNW 10.4 mph 10.4 mph 76% 0.00 in 0.0 W/m2
16:42 10.6 °F 4.2 °F 30.13 in NW 11.5 mph 11.5 mph 75% 0.00 in 0.0 W/m2
16:43 10.5 °F 4.4 °F 30.13 in WNW 9.2 mph 9.2 mph 76% 0.00 in 0.0 W/m2
16:47 10.4 °F 4.3 °F 30.14 in West 6.9 mph 6.9 mph 76% 0.00 in 0.0 W/m2
16:48 10.4 °F 4.3 °F 30.14 in WNW 11.5 mph 11.5 mph 76% 0.00 in 0.0 W/m2
16:53 10.3 °F 4.5 °F 30.14 in West 9.2 mph 9.2 mph 77% 0.00 in 0.0 W/m2
16:55 10.3 °F 4.5 °F 30.14 in West 10.4 mph 10.4 mph 77% 0.00 in 0.0 W/m2
17:00 10.1 °F 4.0 °F 30.14 in WNW 9.2 mph 9.2 mph 76% 0.00 in 0.0 W/m2
17:01 10.0 °F 3.9 °F 30.14 in West 9.2 mph 9.2 mph 76% 0.00 in 0.0 W/m2
17:06 9.9 °F 4.1 °F 30.14 in West 8.1 mph 8.1 mph 77% 0.00 in 0.0 W/m2
17:11 9.6 °F 3.8 °F 30.14 in NW 6.9 mph 6.9 mph 77% 0.00 in 0.0 W/m2
17:14 9.5 °F 3.7 °F 30.14 in WNW 12.0 mph 12.0 mph 77% 0.00 in 0.0 W/m2
17:17 9.5 °F 3.7 °F 30.14 in WNW 9.2 mph 9.2 mph 77% 0.00 in 0.0 W/m2
17:22 9.4 °F 3.6 °F 30.15 in WNW 8.1 mph 8.1 mph 77% 0.00 in 0.0 W/m2
17:24 9.4 °F 3.6 °F 30.15 in WNW 9.2 mph 9.2 mph 77% 0.00 in 0.0 W/m2
17:29 9.4 °F 3.6 °F 30.15 in WNW 11.5 mph 11.5 mph 77% 0.00 in 0.0 W/m2
17:30 9.3 °F 3.5 °F 30.15 in WNW 10.4 mph 10.4 mph 77% 0.00 in 0.0 W/m2
17:34 9.2 °F 3.4 °F 30.15 in WNW 10.4 mph 10.4 mph 77% 0.00 in 0.0 W/m2
17:36 9.1 °F 3.4 °F 30.15 in WNW 8.1 mph 8.1 mph 77% 0.00 in 0.0 W/m2
17:39 9.0 °F 3.3 °F 30.15 in West 9.0 mph 9.0 mph 77% 0.00 in 0.0 W/m2
17:44 9.0 °F 3.5 °F 30.15 in NW 8.1 mph 8.1 mph 78% 0.00 in 0.0 W/m2
17:45 8.9 °F 3.4 °F 30.15 in WNW 8.1 mph 8.1 mph 78% 0.00 in 0.0 W/m2
17:50 8.7 °F 3.2 °F 30.15 in WNW 6.9 mph 6.9 mph 78% 0.00 in 0.0 W/m2
18:00 8.5 °F 3.0 °F 30.16 in WNW 11.5 mph 11.5 mph 78% 0.00 in 0.0 W/m2
18:05 8.6 °F 3.1 °F 30.16 in NW 9.2 mph 9.2 mph 78% 0.00 in 0.0 W/m2
18:06 8.6 °F 3.1 °F 30.17 in West 9.2 mph 9.2 mph 78% 0.00 in 0.0 W/m2
18:11 8.6 °F 3.1 °F 30.16 in WNW 8.1 mph 8.1 mph 78% 0.00 in 0.0 W/m2
18:16 8.5 °F 3.0 °F 30.17 in WNW 9.2 mph 9.2 mph 78% 0.00 in 0.0 W/m2
18:19 8.4 °F 2.9 °F 30.17 in West 8.1 mph 8.1 mph 78% 0.00 in 0.0 W/m2
18:21 8.4 °F 2.9 °F 30.17 in WNW 10.4 mph 10.4 mph 78% 0.00 in 0.0 W/m2
18:26 8.2 °F 2.5 °F 30.17 in NW 10.4 mph 10.4 mph 77% 0.00 in 0.0 W/m2
18:27 8.2 °F 2.5 °F 30.18 in NW 5.8 mph 5.8 mph 77% 0.00 in 0.0 W/m2
18:32 8.1 °F 2.7 °F 30.18 in WNW 11.5 mph 11.5 mph 78% 0.00 in 0.0 W/m2
18:33 8.0 °F 2.6 °F 30.18 in WNW 9.2 mph 9.2 mph 78% 0.00 in 0.0 W/m2
18:38 7.9 °F 2.5 °F 30.18 in NW 10.4 mph 10.4 mph 78% 0.00 in 0.0 W/m2
18:39 7.9 °F 2.5 °F 30.18 in NW 10.4 mph 10.4 mph 78% 0.00 in 0.0 W/m2
18:44 7.8 °F 2.1 °F 30.18 in West 6.0 mph 6.0 mph 77% 0.00 in 0.0 W/m2
18:49 7.6 °F 2.2 °F 30.18 in WNW 6.9 mph 6.9 mph 78% 0.00 in 0.0 W/m2
18:51 7.5 °F 1.8 °F 30.18 in WNW 6.9 mph 6.9 mph 77% 0.00 in 0.0 W/m2
18:54 7.4 °F 1.7 °F 30.18 in WNW 11.5 mph 11.5 mph 77% 0.00 in 0.0 W/m2
18:56 7.4 °F 2.0 °F 30.18 in WNW 7.0 mph 7.0 mph 78% 0.00 in 0.0 W/m2
19:01 7.2 °F 1.5 °F 30.18 in WNW 6.9 mph 6.9 mph 77% 0.00 in 0.0 W/m2
19:02 7.2 °F 1.5 °F 30.18 in West 6.9 mph 6.9 mph 77% 0.00 in 0.0 W/m2
19:03 7.2 °F 1.5 °F 30.18 in WNW 10.4 mph 10.4 mph 77% 0.00 in 0.0 W/m2
19:08 7.1 °F 1.7 °F 30.19 in WNW 9.0 mph 9.0 mph 78% 0.00 in 0.0 W/m2
19:09 7.1 °F 1.4 °F 30.19 in NW 10.4 mph 10.4 mph 77% 0.00 in 0.0 W/m2
19:13 7.0 °F 1.3 °F 30.19 in WNW 10.4 mph 10.4 mph 77% 0.00 in 0.0 W/m2
19:14 7.0 °F 1.3 °F 30.19 in WNW 9.0 mph 9.0 mph 77% 0.00 in 0.0 W/m2
19:19 6.9 °F 1.2 °F 30.19 in WNW 8.1 mph 8.1 mph 77% 0.00 in 0.0 W/m2
19:20 6.9 °F 1.2 °F 30.19 in NW 8.1 mph 8.1 mph 77% 0.00 in 0.0 W/m2
19:25 6.7 °F 1.0 °F 30.19 in WNW 8.1 mph 8.1 mph 77% 0.00 in 0.0 W/m2
19:30 6.5 °F 0.8 °F 30.19 in West 6.9 mph 6.9 mph 77% 0.00 in 0.0 W/m2
19:31 6.5 °F 0.8 °F 30.19 in WNW 9.2 mph 9.2 mph 77% 0.00 in 0.0 W/m2
19:36 6.3 °F 0.6 °F 30.19 in WNW 9.2 mph 9.2 mph 77% 0.00 in 0.0 W/m2
19:41 6.3 °F 0.6 °F 30.19 in WNW 8.1 mph 8.1 mph 77% 0.00 in 0.0 W/m2
19:46 6.2 °F 0.5 °F 30.19 in WNW 10.4 mph 10.4 mph 77% 0.00 in 0.0 W/m2
19:47 6.2 °F 0.5 °F 30.19 in WNW 10.4 mph 10.4 mph 77% 0.00 in 0.0 W/m2
19:48 6.2 °F 0.5 °F 30.19 in WNW 5.8 mph 5.8 mph 77% 0.00 in 0.0 W/m2
19:53 6.0 °F 0.3 °F 30.20 in NW 9.2 mph 9.2 mph 77% 0.00 in 0.0 W/m2
19:58 5.7 °F 0.0 °F 30.19 in WNW 9.2 mph 9.2 mph 77% 0.00 in 0.0 W/m2
20:03 5.5 °F -0.1 °F 30.19 in WNW 9.0 mph 9.0 mph 77% 0.01 in 0.0 W/m2
20:04 5.5 °F -0.1 °F 30.19 in WNW 9.2 mph 9.2 mph 77% 0.01 in 0.0 W/m2
20:06 5.4 °F -0.2 °F 30.19 in West 9.0 mph 9.0 mph 77% 0.01 in 0.0 W/m2
20:09 5.3 °F -0.3 °F 30.19 in WNW 6.9 mph 6.9 mph 77% 0.01 in 0.0 W/m2
20:14 5.0 °F -0.6 °F 30.19 in WNW 5.8 mph 5.8 mph 77% 0.01 in 0.0 W/m2
20:16 5.0 °F -0.6 °F 30.19 in WNW 9.2 mph 9.2 mph 77% 0.01 in 0.0 W/m2
20:21 4.7 °F -0.9 °F 30.20 in WNW 6.9 mph 6.9 mph 77% 0.02 in 0.0 W/m2
20:22 4.6 °F -0.8 °F 30.20 in West 9.2 mph 9.2 mph 78% 0.02 in 0.0 W/m2
20:27 4.5 °F -0.8 °F 30.19 in WNW 8.1 mph 8.1 mph 78% 0.02 in 0.0 W/m2
20:29 4.4 °F -0.9 °F 30.20 in WNW 4.6 mph 4.6 mph 78% 0.02 in 0.0 W/m2
20:31 4.4 °F -0.9 °F 30.19 in WNW 5.8 mph 5.8 mph 78% 0.02 in 0.0 W/m2
20:35 4.4 °F -0.9 °F 30.19 in WNW 10.4 mph 10.4 mph 78% 0.02 in 0.0 W/m2
20:36 4.4 °F -0.9 °F 30.19 in WNW 6.9 mph 6.9 mph 78% 0.02 in 0.0 W/m2
20:41 4.4 °F -0.9 °F 30.20 in NW 9.2 mph 9.2 mph 78% 0.02 in 0.0 W/m2
20:43 4.4 °F -0.9 °F 30.20 in West 9.2 mph 9.2 mph 78% 0.02 in 0.0 W/m2
20:48 4.3 °F -1.0 °F 30.20 in WNW 9.2 mph 9.2 mph 78% 0.02 in 0.0 W/m2
20:58 4.1 °F -1.2 °F 30.20 in NW 9.2 mph 9.2 mph 78% 0.03 in 0.0 W/m2
20:59 4.1 °F -1.2 °F 30.20 in WNW 8.1 mph 8.1 mph 78% 0.03 in 0.0 W/m2
21:04 4.1 °F -1.2 °F 30.20 in WNW 8.1 mph 8.1 mph 78% 0.02 in 0.0 W/m2
21:05 4.1 °F -1.2 °F 30.20 in NW 10.4 mph 10.4 mph 78% 0.02 in 0.0 W/m2
21:10 4.1 °F -1.2 °F 30.20 in NW 6.9 mph 6.9 mph 78% 0.02 in 0.0 W/m2
21:14 4.1 °F -1.2 °F 30.20 in NW 9.2 mph 9.2 mph 78% 0.02 in 0.0 W/m2
21:16 4.0 °F -1.3 °F 30.20 in WNW 8.1 mph 8.1 mph 78% 0.02 in 0.0 W/m2
21:21 4.0 °F -1.3 °F 30.20 in WNW 8.1 mph 8.1 mph 78% 0.01 in 0.0 W/m2
21:26 4.0 °F -1.6 °F 30.20 in WNW 9.2 mph 9.2 mph 77% 0.01 in 0.0 W/m2
21:27 4.0 °F -1.3 °F 30.20 in NW 8.1 mph 8.1 mph 78% 0.01 in 0.0 W/m2
21:31 3.8 °F -1.8 °F 30.20 in WNW 9.2 mph 9.2 mph 77% 0.01 in 0.0 W/m2
21:32 3.8 °F -1.8 °F 30.20 in WNW 9.2 mph 9.2 mph 77% 0.01 in 0.0 W/m2
21:37 3.5 °F -2.1 °F 30.20 in WNW 9.2 mph 9.2 mph 77% 0.01 in 0.0 W/m2
21:38 3.5 °F -2.1 °F 30.20 in WNW 9.2 mph 9.2 mph 77% 0.01 in 0.0 W/m2
21:43 3.2 °F -2.4 °F 30.20 in WNW 9.2 mph 9.2 mph 77% 0.01 in 0.0 W/m2
21:48 3.1 °F -2.2 °F 30.20 in WNW 9.2 mph 9.2 mph 78% 0.00 in 0.0 W/m2
21:51 3.0 °F -2.3 °F 30.20 in WNW 10.4 mph 10.4 mph 78% 0.00 in 0.0 W/m2
21:55 3.0 °F -2.3 °F 30.20 in WNW 10.4 mph 10.4 mph 78% 0.00 in 0.0 W/m2
22:00 3.0 °F -2.3 °F 30.21 in NW 11.5 mph 11.5 mph 78% 0.00 in 0.0 W/m2
22:01 3.0 °F -2.3 °F 30.20 in WNW 10.4 mph 10.4 mph 78% 0.00 in 0.0 W/m2
22:05 3.0 °F -2.3 °F 30.20 in WNW 8.1 mph 8.1 mph 78% 0.00 in 0.0 W/m2
22:06 3.0 °F -2.3 °F 30.20 in WNW 6.9 mph 6.9 mph 78% 0.00 in 0.0 W/m2
22:10 2.9 °F -2.4 °F 30.20 in WNW 8.1 mph 8.1 mph 78% 0.00 in 0.0 W/m2
22:11 2.8 °F -2.5 °F 30.20 in NW 9.2 mph 9.2 mph 78% 0.00 in 0.0 W/m2
22:13 2.7 °F -2.6 °F 30.27 in West 8.1 mph 8.1 mph 78% 0.00 in 0.0 W/m2
22:14 2.7 °F -2.6 °F 30.27 in WNW 8.1 mph 8.1 mph 78% 0.00 in 0.0 W/m2
22:15 2.6 °F -2.7 °F 30.27 in WNW 10.4 mph 10.4 mph 78% 0.00 in 0.0 W/m2
22:16 2.6 °F -2.7 °F 30.20 in WNW 10.4 mph 10.4 mph 78% 0.00 in 0.0 W/m2
22:17 2.6 °F -2.7 °F 30.21 in NW 10.4 mph 10.4 mph 78% 0.00 in 0.0 W/m2
22:22 2.5 °F -2.8 °F 30.21 in WNW 5.0 mph 5.0 mph 78% 0.00 in 0.0 W/m2
22:27 2.2 °F -3.1 °F 30.20 in NW 10.4 mph 10.4 mph 78% 0.00 in 0.0 W/m2
22:29 2.1 °F -3.2 °F 30.20 in WNW 6.9 mph 6.9 mph 78% 0.00 in 0.0 W/m2
22:34 2.1 °F -3.2 °F 30.20 in WNW 8.1 mph 8.1 mph 78% 0.00 in 0.0 W/m2
22:37 2.0 °F -3.3 °F 30.20 in WNW 8.1 mph 8.1 mph 78% 0.00 in 0.0 W/m2
22:40 2.1 °F -3.2 °F 30.27 in WNW 9.2 mph 9.2 mph 78% 0.00 in 0.0 W/m2
22:42 2.1 °F -2.9 °F 30.27 in NW 10.4 mph 10.4 mph 79% 0.00 in 0.0 W/m2
22:43 2.2 °F -2.8 °F 30.20 in West 9.0 mph 9.0 mph 79% 0.00 in 0.0 W/m2
22:48 2.4 °F -2.6 °F 30.20 in WNW 11.5 mph 11.5 mph 79% 0.00 in 0.0 W/m2
22:49 2.4 °F -2.6 °F 30.20 in NW 11.5 mph 11.5 mph 79% 0.00 in 0.0 W/m2
22:50 2.4 °F -2.6 °F 30.27 in WNW 9.0 mph 9.0 mph 79% 0.00 in 0.0 W/m2
22:52 2.4 °F -2.9 °F 30.27 in WNW 11.5 mph 11.5 mph 78% 0.00 in 0.0 W/m2
22:53 2.4 °F -2.9 °F 30.20 in WNW 10.4 mph 10.4 mph 78% 0.00 in 0.0 W/m2
22:54 2.4 °F -2.9 °F 30.20 in WNW 11.5 mph 11.5 mph 78% 0.00 in 0.0 W/m2
22:57 2.4 °F -2.9 °F 30.20 in WNW 10.4 mph 10.4 mph 78% 0.00 in 0.0 W/m2
23:01 2.4 °F -2.9 °F 30.20 in NW 11.5 mph 11.5 mph 78% 0.00 in 0.0 W/m2
23:06 2.4 °F -2.9 °F 30.20 in WNW 11.0 mph 11.0 mph 78% 0.00 in 0.0 W/m2
23:07 2.4 °F -2.9 °F 30.20 in NW 11.5 mph 11.5 mph 78% 0.00 in 0.0 W/m2
23:13 2.3 °F -3.0 °F 30.20 in NW 9.2 mph 9.2 mph 78% 0.00 in 0.0 W/m2
23:16 2.2 °F -3.1 °F 30.20 in NW 10.4 mph 10.4 mph 78% 0.00 in 0.0 W/m2
23:19 2.2 °F -3.1 °F 30.20 in WNW 12.0 mph 12.0 mph 78% 0.00 in 0.0 W/m2
23:24 2.0 °F -3.3 °F 30.20 in WNW 11.5 mph 11.5 mph 78% 0.00 in 0.0 W/m2
23:25 2.0 °F -3.3 °F 30.20 in WNW 11.5 mph 11.5 mph 78% 0.00 in 0.0 W/m2
23:31 1.9 °F -3.4 °F 30.20 in WNW 10.0 mph 10.0 mph 78% 0.00 in 0.0 W/m2
23:33 1.9 °F -3.4 °F 30.20 in WNW 12.7 mph 12.7 mph 78% 0.00 in 0.0 W/m2
23:34 1.9 °F -3.4 °F 30.27 in WNW 9.2 mph 9.2 mph 78% 0.00 in 0.0 W/m2
23:39 1.8 °F -3.5 °F 30.20 in West 12.7 mph 12.7 mph 78% 0.00 in 0.0 W/m2
23:45 1.8 °F -3.5 °F 30.20 in West 11.5 mph 11.5 mph 78% 0.00 in 0.0 W/m2
23:50 1.7 °F -3.6 °F 30.20 in NW 11.5 mph 11.5 mph 78% 0.00 in 0.0 W/m2
23:53 1.7 °F -3.6 °F 30.20 in West 11.5 mph 11.5 mph 78% 0.00 in 0.0 W/m2
23:58 1.5 °F -3.8 °F 30.20 in WNW 11.5 mph 11.5 mph 78% 0.00 in 0.0 W/m2
23:59 1.4 °F -3.9 °F 30.20 in WNW 9.2 mph 9.2 mph 78% 0.00 in 0.0 W/m2
Bourbonnais, Illinois, USA
Compliments of Weather Underground - 4 mb